Time;durP1;ratioP1;P1;durP2;ratioP2;P2;SDS_P1;SDS_P2;PMS_P1;PMS_P2;Temp;Humidity;BMP_temperature;BMP_pressure;BME280_temperature;BME280_humidity;BME280_pressure;Samples;Min_cycle;Max_cycle;Signal;HPM_P1;HPM_P2
2023/08/17 00:02:15;;;;;;;5.20;3.00;;;;;;;21.46;100.00;100626.48;105803;1253;60439;-64
2023/08/17 00:04:43;;;;;;;5.90;3.10;;;;;;;21.43;100.00;100626.65;105696;1251;73619;-62
2023/08/17 00:07:11;;;;;;;5.10;3.10;;;;;;;21.41;100.00;100626.14;105783;1252;67048;-62
2023/08/17 00:09:39;;;;;;;6.80;3.40;;;;;;;21.36;100.00;100627.14;105479;1253;72642;-62
2023/08/17 00:12:07;;;;;;;5.50;3.40;;;;;;;21.30;100.00;100625.07;105893;1253;60011;-63
2023/08/17 00:14:35;;;;;;;4.00;3.00;;;;;;;21.25;100.00;100625.48;105624;1256;59543;-63
2023/08/17 00:17:02;;;;;;;6.60;3.40;;;;;;;21.20;100.00;100625.40;105743;1252;71820;-62
2023/08/17 00:19:30;;;;;;;5.20;3.60;;;;;;;21.16;100.00;100627.27;105684;1251;66070;-62
2023/08/17 00:21:58;;;;;;;9.00;3.80;;;;;;;21.11;100.00;100625.45;105961;1253;71556;-64
2023/08/17 00:24:26;;;;;;;5.30;3.00;;;;;;;21.07;100.00;100631.17;106018;1253;61749;-66
2023/08/17 00:26:54;;;;;;;8.90;3.10;;;;;;;21.03;100.00;100636.63;105677;1251;60036;-61
2023/08/17 00:29:23;;;;;;;5.70;3.60;;;;;;;21.00;100.00;100635.20;105852;1252;73015;-65
2023/08/17 00:31:52;;;;;;;7.80;3.70;;;;;;;20.97;100.00;100634.98;105865;1254;67046;-62
2023/08/17 00:34:19;;;;;;;6.30;3.60;;;;;;;20.94;100.00;100634.57;105983;1252;72712;-60
2023/08/17 00:36:47;;;;;;;5.70;3.90;;;;;;;20.90;100.00;100636.58;105724;1256;60523;-61
2023/08/17 00:39:15;;;;;;;4.20;3.20;;;;;;;20.90;100.00;100634.52;106006;1256;60602;-65
2023/08/17 00:41:43;;;;;;;6.90;3.60;;;;;;;20.87;100.00;100633.89;105701;1256;73140;-64
2023/08/17 00:44:11;;;;;;;6.40;3.50;;;;;;;20.87;100.00;100632.34;105721;1256;65639;-61
2023/08/17 00:46:38;;;;;;;7.70;3.70;;;;;;;20.86;100.00;100632.60;105915;1253;71404;-65
2023/08/17 00:49:06;;;;;;;4.70;3.70;;;;;;;20.87;100.00;100629.33;105458;1259;60170;-62
2023/08/17 00:51:34;;;;;;;6.80;3.50;;;;;;;20.86;100.00;100630.69;105511;1253;60099;-61
2023/08/17 00:54:02;;;;;;;7.60;3.70;;;;;;;20.85;100.00;100630.37;105889;1251;73088;-60
2023/08/17 00:56:30;;;;;;;7.90;3.60;;;;;;;20.84;100.00;100635.85;106328;1256;65668;-61
2023/08/17 00:58:58;;;;;;;4.30;3.40;;;;;;;20.84;100.00;100634.80;105947;1254;72169;-66
2023/08/17 01:01:25;;;;;;;5.60;4.00;;;;;;;20.82;100.00;100632.95;105502;1251;60609;-64
2023/08/17 01:03:53;;;;;;;4.20;3.40;;;;;;;20.78;100.00;100633.11;105714;1256;60045;-62
2023/08/17 01:06:21;;;;;;;5.50;3.30;;;;;;;20.77;100.00;100631.73;105651;1253;73240;-63
2023/08/17 01:08:49;;;;;;;5.30;3.60;;;;;;;20.75;100.00;100629.30;105792;1256;67517;-67
2023/08/17 01:11:34;;;;;;;4.60;3.30;;;;;;;20.71;100.00;100629.98;105831;1256;72716;-64
2023/08/17 01:14:19;;;;;;;4.10;3.20;;;;;;;20.68;100.00;100628.41;105707;1257;60529;-62
2023/08/17 01:16:50;;;;;;;6.60;3.50;;;;;;;20.67;100.00;100628.48;105594;1256;60516;-67
2023/08/17 01:19:26;;;;;;;6.00;4.00;;;;;;;20.65;100.00;100625.37;105481;1258;73819;-63
2023/08/17 01:22:07;;;;;;;5.40;3.80;;;;;;;20.63;100.00;100628.84;105738;1251;65717;-66
2023/08/17 01:24:35;;;;;;;8.40;3.60;;;;;;;20.61;100.00;100631.01;105280;1258;71471;-63
2023/08/17 01:27:03;;;;;;;5.90;4.00;;;;;;;20.60;100.00;100631.35;105743;1256;60510;-63
2023/08/17 01:29:31;;;;;;;4.80;4.20;;;;;;;20.59;100.00;100629.36;105629;1254;60442;-64
2023/08/17 01:32:08;;;;;;;6.40;3.40;;;;;;;20.54;100.00;100628.98;105384;1256;73783;-63
2023/08/17 01:34:44;;;;;;;4.50;2.90;;;;;;;20.52;100.00;100629.56;105694;1256;65722;-64
2023/08/17 01:37:12;;;;;;;7.60;3.70;;;;;;;20.48;100.00;100628.84;105547;1253;72608;-67
2023/08/17 01:39:43;;;;;;;4.70;3.30;;;;;;;20.45;100.00;100629.31;105171;1261;60470;-60
2023/08/17 01:42:12;;;;;;;6.10;3.40;;;;;;;20.43;100.00;100629.34;106042;1253;60483;-64
2023/08/17 01:44:40;;;;;;;5.90;3.00;;;;;;;20.41;100.00;100629.66;105505;1256;73808;-62
2023/08/17 01:47:08;;;;;;;7.40;3.90;;;;;;;20.39;100.00;100629.33;105575;1253;67764;-67
2023/08/17 01:49:35;;;;;;;5.40;3.10;;;;;;;20.36;100.00;100629.80;105829;1253;74116;-62
2023/08/17 01:52:03;;;;;;;5.20;3.50;;;;;;;20.34;100.00;100629.80;106013;1253;61981;-63
2023/08/17 01:54:31;;;;;;;5.00;3.50;;;;;;;20.33;100.00;100627.27;105856;1256;60759;-62
2023/08/17 01:56:59;;;;;;;5.20;3.00;;;;;;;20.32;100.00;100624.16;105588;1251;73927;-64
2023/08/17 01:59:27;;;;;;;5.60;3.60;;;;;;;20.30;100.00;100626.23;105711;1257;65984;-63
2023/08/17 02:01:55;;;;;;;4.80;3.50;;;;;;;20.26;100.00;100627.83;105688;1252;72711;-67
2023/08/17 02:04:23;;;;;;;4.40;3.10;;;;;;;20.22;100.00;100629.23;105975;1253;60097;-63
2023/08/17 02:06:50;;;;;;;6.00;3.30;;;;;;;20.18;100.00;100627.15;105739;1252;60522;-62
2023/08/17 02:09:19;;;;;;;6.10;3.10;;;;;;;20.15;100.00;100626.25;105833;1253;73854;-66
2023/08/17 02:11:46;;;;;;;7.00;2.90;;;;;;;20.14;100.00;100622.95;105743;1256;67230;-63
2023/08/17 02:14:14;;;;;;;4.70;3.10;;;;;;;20.12;100.00;100621.64;105799;1259;72493;-67
2023/08/17 02:16:42;;;;;;;7.80;3.80;;;;;;;20.09;100.00;100621.11;105707;1256;60401;-64
2023/08/17 02:19:11;;;;;;;5.00;2.90;;;;;;;20.07;100.00;100626.09;105765;1257;60324;-66
2023/08/17 02:21:39;;;;;;;5.60;2.90;;;;;;;20.04;100.00;100627.10;105765;1256;73879;-62
2023/08/17 02:32:02;;;;;;;6.50;3.10;;;;;;;19.99;100.00;100619.71;102321;1292;600537;-62
2023/08/17 02:34:30;;;;;;;4.80;3.00;;;;;;;19.97;100.00;100628.31;104860;1267;61712;-62
2023/08/17 02:36:57;;;;;;;6.70;3.10;;;;;;;19.99;100.00;100630.08;104836;1264;60008;-62
2023/08/17 02:39:25;;;;;;;4.40;2.70;;;;;;;20.00;100.00;100630.32;104758;1264;72263;-66
2023/08/17 02:41:53;;;;;;;4.30;2.90;;;;;;;20.03;100.00;100632.54;104995;1264;67535;-62
2023/08/17 02:44:21;;;;;;;4.70;2.70;;;;;;;20.06;100.00;100635.35;105164;1268;73479;-63
2023/08/17 02:46:49;;;;;;;5.30;2.80;;;;;;;20.09;100.00;100638.33;104873;1266;186586;-66
2023/08/17 02:49:17;;;;;;;3.70;2.40;;;;;;;20.11;100.00;100642.94;104875;1263;59339;-67
2023/08/17 02:51:44;;;;;;;4.30;2.40;;;;;;;20.13;100.00;100639.98;104714;1267;72740;-63
2023/08/17 02:54:12;;;;;;;5.40;2.40;;;;;;;20.14;100.00;100641.73;105095;1263;65722;-63
2023/08/17 02:56:40;;;;;;;4.10;2.70;;;;;;;20.15;100.00;100639.44;105129;1266;72625;-65
2023/08/17 02:59:07;;;;;;;4.70;3.00;;;;;;;20.17;100.00;100643.77;105126;1260;59827;-63
2023/08/17 03:01:35;;;;;;;4.50;2.30;;;;;;;20.18;100.00;100644.20;105107;1258;59672;-63
2023/08/17 03:04:03;;;;;;;3.90;2.20;;;;;;;20.22;100.00;100648.30;105553;1260;72851;-62
2023/08/17 03:06:31;;;;;;;4.60;2.20;;;;;;;20.28;100.00;100649.25;105373;1256;65726;-63
2023/08/17 03:08:59;;;;;;;5.00;2.60;;;;;;;20.36;100.00;100648.95;105506;1257;73162;-63
2023/08/17 03:11:27;;;;;;;6.00;2.70;;;;;;;20.46;100.00;100650.41;105509;1260;61196;-64
2023/08/17 03:13:59;;;;;;;5.00;2.40;;;;;;;20.55;100.00;100649.16;105346;1258;59957;-64
2023/08/17 03:16:30;;;;;;;4.30;2.30;;;;;;;20.63;100.00;100648.29;105277;1254;71833;-63
2023/08/17 03:18:59;;;;;;;3.90;1.90;;;;;;;20.70;100.00;100648.98;105103;1254;67503;-65
2023/08/17 03:21:27;;;;;;;4.40;2.50;;;;;;;20.76;100.00;100647.65;105542;1254;74090;-63
2023/08/17 03:23:55;;;;;;;3.60;2.60;;;;;;;20.84;100.00;100648.16;105449;1254;60153;-64
2023/08/17 03:26:25;;;;;;;3.80;2.40;;;;;;;21.05;100.00;100644.81;105708;1257;60064;-64
2023/08/17 03:28:53;;;;;;;3.70;2.20;;;;;;;21.40;100.00;100641.08;105513;1254;72533;-62
2023/08/17 03:31:21;;;;;;;5.20;2.70;;;;;;;21.74;100.00;100636.89;105437;1254;67041;-64
2023/08/17 03:33:49;;;;;;;4.30;2.50;;;;;;;22.20;100.00;100636.60;109177;1256;72754;-64
2023/08/17 03:36:18;;;;;;;5.60;2.10;;;;;;;22.90;100.00;100631.30;109133;1254;60126;-66
2023/08/17 03:38:45;;;;;;;5.60;2.40;;;;;;;23.80;100.00;100624.23;109149;1254;59775;-64
2023/08/17 03:41:13;;;;;;;4.50;2.30;;;;;;;24.72;100.00;100619.20;109085;1254;71825;-61
2023/08/17 03:43:41;;;;;;;3.50;2.50;;;;;;;25.53;100.00;100609.73;109166;1254;67047;-61
2023/08/17 03:46:08;;;;;;;5.90;3.00;;;;;;;26.21;100.00;100606.27;109126;1254;71353;-61
2023/08/17 03:48:36;;;;;;;5.50;2.70;;;;;;;26.86;100.00;100608.46;109092;1254;60125;-62
2023/08/17 03:51:06;;;;;;;5.10;2.70;;;;;;;27.45;100.00;100605.52;109046;1254;58898;-63
2023/08/17 03:53:34;;;;;;;3.60;2.50;;;;;;;27.94;100.00;100609.81;109142;1254;71831;-61
2023/08/17 03:56:02;;;;;;;4.70;3.00;;;;;;;28.34;100.00;100610.17;109015;1254;66842;-60
2023/08/17 03:58:33;;;;;;;4.40;2.60;;;;;;;28.64;100.00;100614.30;108976;1254;71405;-62
2023/08/17 04:01:01;;;;;;;6.60;2.80;;;;;;;28.85;100.00;100612.96;108969;1254;58822;-63
2023/08/17 04:03:30;;;;;;;4.60;2.70;;;;;;;29.29;100.00;100618.52;109370;1251;58726;-61
2023/08/17 04:06:04;;;;;;;3.80;2.30;;;;;;;29.72;100.00;100615.50;109371;1251;72304;-61
2023/08/17 04:08:32;;;;;;;4.50;2.10;;;;;;;30.04;100.00;100611.45;109349;1251;66918;-62
2023/08/17 04:10:59;;;;;;;5.60;2.20;;;;;;;30.42;100.00;100612.64;109298;1251;71550;-63
2023/08/17 04:13:27;;;;;;;5.10;2.10;;;;;;;30.92;100.00;100621.13;109365;1253;60120;-61
2023/08/17 04:15:55;;;;;;;4.40;2.00;;;;;;;31.30;97.83;100618.25;109402;1251;60065;-62
2023/08/17 04:18:22;;;;;;;4.00;1.90;;;;;;;31.55;90.06;100618.82;109334;1250;71719;-65
2023/08/17 04:20:50;;;;;;;4.70;2.20;;;;;;;31.61;85.76;100619.17;109366;1251;66897;-63
2023/08/17 04:23:21;;;;;;;4.00;1.80;;;;;;;31.78;85.77;100622.40;109393;1251;72614;-62
2023/08/17 04:25:49;;;;;;;3.90;1.80;;;;;;;32.10;78.60;100623.11;109332;1251;58773;-63
2023/08/17 04:28:16;;;;;;;3.50;1.70;;;;;;;32.27;72.36;100622.61;109358;1251;60014;-66
2023/08/17 04:30:45;;;;;;;3.70;1.80;;;;;;;32.18;70.28;100619.42;109307;1251;72721;-64
2023/08/17 04:33:12;;;;;;;3.00;1.70;;;;;;;32.07;71.88;100620.63;109407;1251;65636;-61
2023/08/17 04:35:40;;;;;;;3.00;1.80;;;;;;;32.07;73.59;100621.18;109420;1251;72736;-64
2023/08/17 04:38:08;;;;;;;5.30;1.90;;;;;;;32.26;75.38;100622.29;109407;1251;58854;-63
2023/08/17 04:40:37;;;;;;;4.40;1.60;;;;;;;32.42;68.26;100619.44;109290;1251;58748;-65
2023/08/17 04:43:05;;;;;;;3.10;2.10;;;;;;;32.38;67.33;100618.93;109409;1251;71792;-64
2023/08/17 04:45:32;;;;;;;3.90;2.00;;;;;;;32.36;64.74;100619.96;109346;1251;66284;-61
2023/08/17 04:48:00;;;;;;;6.00;1.80;;;;;;;32.29;66.62;100622.69;109387;1251;72770;-61
2023/08/17 04:50:30;;;;;;;3.30;1.90;;;;;;;32.39;65.37;100623.98;109400;1250;58883;-62
2023/08/17 04:52:59;;;;;;;6.10;1.40;;;;;;;32.44;65.45;100625.34;109296;1251;60750;-61
2023/08/17 04:55:27;;;;;;;3.10;1.80;;;;;;;32.44;65.34;100629.84;109384;1251;73121;-62
2023/08/17 04:57:55;;;;;;;2.70;1.60;;;;;;;32.33;64.33;100633.83;109388;1250;65714;-61
2023/08/17 05:00:27;;;;;;;3.50;2.00;;;;;;;32.21;66.80;100636.42;109350;1251;72610;-65
2023/08/17 05:02:55;;;;;;;2.50;1.60;;;;;;;32.25;69.39;100634.70;109300;1252;61083;-64
2023/08/17 05:05:25;;;;;;;3.30;2.20;;;;;;;32.49;69.99;100635.38;109409;1251;60471;-63
2023/08/17 05:07:53;;;;;;;5.80;2.20;;;;;;;32.84;67.89;100636.14;109342;1251;71801;-64
2023/08/17 05:10:21;;;;;;;5.10;2.00;;;;;;;33.10;66.63;100639.83;109360;1251;66114;-64
2023/08/17 05:12:49;;;;;;;4.30;2.10;;;;;;;33.41;63.50;100639.52;109260;1251;73611;-64
2023/08/17 05:15:16;;;;;;;4.10;2.10;;;;;;;33.81;60.65;100636.08;109379;1251;57416;-62
2023/08/17 05:17:44;;;;;;;3.80;1.80;;;;;;;34.11;54.73;100633.41;109392;1251;57494;-61
2023/08/17 05:20:15;;;;;;;4.80;2.00;;;;;;;34.13;53.07;100633.67;109404;1250;64137;-61
2023/08/17 05:22:43;;;;;;;3.90;2.10;;;;;;;34.10;53.60;100634.07;109307;1251;57367;-65
2023/08/17 05:25:10;;;;;;;3.40;1.80;;;;;;;34.23;55.47;100633.73;109401;1251;73092;-63
2023/08/17 05:27:39;;;;;;;5.00;1.90;;;;;;;34.55;55.06;100632.86;109362;1250;57539;-63
2023/08/17 05:30:07;;;;;;;4.10;2.30;;;;;;;34.97;51.76;100634.68;109376;1250;57611;-62
2023/08/17 05:32:35;;;;;;;3.00;2.30;;;;;;;35.35;47.86;100637.04;109367;1251;62882;-65
2023/08/17 05:35:03;;;;;;;3.70;2.10;;;;;;;35.33;45.09;100637.00;109299;1251;57853;-64
2023/08/17 05:37:31;;;;;;;4.40;2.60;;;;;;;35.00;45.77;100640.59;109375;1251;66079;-61
2023/08/17 05:39:58;;;;;;;4.60;2.20;;;;;;;34.76;48.50;100644.83;109363;1250;57368;-62
2023/08/17 05:42:26;;;;;;;3.90;2.10;;;;;;;34.77;51.20;100646.73;109317;1253;59225;-65
2023/08/17 05:44:54;;;;;;;7.70;2.30;;;;;;;35.02;51.33;100643.61;109347;1251;62906;-63
2023/08/17 05:47:22;;;;;;;5.00;2.20;;;;;;;35.21;49.65;100644.13;109343;1251;57793;-62
2023/08/17 05:49:50;;;;;;;5.50;2.20;;;;;;;35.25;48.01;100644.48;109336;1253;62510;-63
2023/08/17 05:52:18;;;;;;;3.70;2.10;;;;;;;35.10;47.69;100647.14;109401;1251;57357;-62
2023/08/17 05:54:45;;;;;;;5.50;2.20;;;;;;;35.02;50.02;100646.33;109348;1251;57707;-65
2023/08/17 05:57:13;;;;;;;4.30;2.40;;;;;;;35.10;50.73;100646.17;109350;1251;64123;-63
2023/08/17 05:59:41;;;;;;;8.60;5.60;;;;;;;35.28;49.16;100643.33;109425;1251;57841;-62
2023/08/17 06:02:08;;;;;;;14.20;9.40;;;;;;;35.25;47.82;100645.27;109388;1251;62492;-62
2023/08/17 06:04:36;;;;;;;13.50;10.00;;;;;;;35.01;48.38;100643.50;109311;1251;57600;-63
2023/08/17 06:07:03;;;;;;;11.40;8.00;;;;;;;34.81;51.27;100644.77;109376;1251;58896;-64
2023/08/17 06:09:31;;;;;;;9.60;6.00;;;;;;;34.79;53.88;100640.16;109404;1251;64210;-63
2023/08/17 06:11:58;;;;;;;16.40;8.90;;;;;;;35.01;52.92;100639.85;109453;1251;57391;-62
2023/08/17 06:14:26;;;;;;;10.30;7.30;;;;;;;35.17;52.28;100641.98;109381;1251;63794;-62
2023/08/17 06:16:54;;;;;;;12.40;6.60;;;;;;;35.17;50.34;100643.60;109378;1250;57871;-63
2023/08/17 06:19:21;;;;;;;9.00;6.00;;;;;;;34.96;50.93;100644.56;109371;1253;59855;-61
2023/08/17 06:21:49;;;;;;;7.40;5.00;;;;;;;34.92;53.25;100646.52;109428;1251;64208;-63
2023/08/17 06:24:16;;;;;;;8.90;5.50;;;;;;;35.02;53.74;100641.83;109406;1251;58196;-62
2023/08/17 06:26:45;;;;;;;4.60;2.80;;;;;;;35.17;53.23;100639.27;109371;1251;62502;-64
2023/08/17 06:29:13;;;;;;;5.00;2.50;;;;;;;35.38;52.09;100638.23;109343;1251;57510;-63
2023/08/17 06:31:40;;;;;;;3.70;2.10;;;;;;;35.64;50.26;100637.71;109394;1251;57471;-64
2023/08/17 06:34:08;;;;;;;4.10;2.50;;;;;;;35.85;49.64;100640.70;109422;1251;64233;-63
2023/08/17 06:36:37;;;;;;;3.30;2.30;;;;;;;36.14;48.22;100638.89;109444;1251;58352;-62
2023/08/17 06:39:05;;;;;;;5.40;2.50;;;;;;;36.35;47.13;100637.98;109310;1253;62505;-67
2023/08/17 06:41:33;;;;;;;5.00;2.50;;;;;;;36.65;45.39;100634.42;109371;1254;58192;-64
2023/08/17 06:44:00;;;;;;;5.80;2.50;;;;;;;36.85;43.95;100634.91;109383;1250;58597;-61
2023/08/17 06:46:28;;;;;;;3.10;2.20;;;;;;;36.80;42.72;100634.93;109438;1250;65023;-64
2023/08/17 06:48:55;;;;;;;4.00;2.30;;;;;;;36.68;43.11;100633.26;109368;1250;58631;-65
2023/08/17 06:51:23;;;;;;;4.90;1.90;;;;;;;36.59;41.55;100635.03;109354;1250;64266;-62
2023/08/17 06:53:51;;;;;;;3.80;2.10;;;;;;;36.37;41.51;100638.34;109385;1251;58243;-61
2023/08/17 06:56:19;;;;;;;4.20;2.10;;;;;;;36.25;43.36;100633.13;109396;1251;58228;-61
2023/08/17 06:58:46;;;;;;;5.40;2.20;;;;;;;36.40;42.99;100631.74;109409;1250;63695;-65
2023/08/17 07:01:14;;;;;;;2.90;1.60;;;;;;;36.42;41.92;100629.78;109350;1251;58828;-63
2023/08/17 07:03:42;;;;;;;3.30;2.50;;;;;;;36.37;42.48;100631.41;109416;1251;63739;-62
2023/08/17 07:06:10;;;;;;;4.20;2.10;;;;;;;36.37;42.75;100629.02;109394;1251;58557;-61
2023/08/17 07:08:37;;;;;;;5.00;1.80;;;;;;;36.34;42.39;100628.02;109239;1250;58343;-61
2023/08/17 07:11:06;;;;;;;2.70;1.70;;;;;;;36.21;40.95;100627.81;109327;1251;72684;-63
2023/08/17 07:13:33;;;;;;;3.90;1.80;;;;;;;36.05;41.84;100625.95;109401;1250;58328;-62
2023/08/17 07:16:01;;;;;;;5.90;1.90;;;;;;;35.93;42.75;100626.66;109440;1251;63811;-62
2023/08/17 07:18:28;;;;;;;3.20;1.80;;;;;;;35.84;41.99;100626.42;109387;1250;58181;-62
2023/08/17 07:20:56;;;;;;;4.40;1.40;;;;;;;35.76;42.33;100625.64;109413;1251;58479;-61
2023/08/17 07:23:25;;;;;;;4.10;2.10;;;;;;;35.65;42.74;100627.44;109342;1252;65130;-63
2023/08/17 07:25:53;;;;;;;3.60;1.80;;;;;;;35.57;44.89;100625.82;109411;1251;58344;-65
2023/08/17 07:28:21;;;;;;;3.60;1.80;;;;;;;35.90;44.97;100624.88;109444;1251;63873;-65
2023/08/17 07:30:48;;;;;;;3.70;1.80;;;;;;;36.23;42.92;100626.25;109367;1251;58167;-65
2023/08/17 07:33:16;;;;;;;5.20;1.80;;;;;;;36.21;41.27;100627.44;109362;1251;58281;-65
2023/08/17 07:35:44;;;;;;;6.20;2.00;;;;;;;36.15;42.23;100621.92;109397;1251;65081;-64
2023/08/17 07:38:11;;;;;;;3.40;2.00;;;;;;;36.06;41.09;100620.91;109415;1250;58555;-64
2023/08/17 07:40:39;;;;;;;3.80;2.10;;;;;;;35.89;40.91;100615.16;109398;1251;63894;-65
2023/08/17 07:43:07;;;;;;;5.70;1.70;;;;;;;35.85;44.05;100614.20;109346;1251;58139;-64
2023/08/17 07:45:34;;;;;;;7.40;2.20;;;;;;;35.97;44.16;100611.68;109348;1251;58456;-62
2023/08/17 07:48:02;;;;;;;3.70;1.70;;;;;;;36.03;43.60;100607.98;109426;1251;65010;-63
2023/08/17 07:50:30;;;;;;;3.80;1.70;;;;;;;36.23;43.42;100606.64;109456;1251;58421;-62
2023/08/17 07:52:57;;;;;;;2.60;1.50;;;;;;;36.38;40.58;100608.13;109387;1250;63768;-65
2023/08/17 07:55:26;;;;;;;2.40;1.30;;;;;;;36.24;39.71;100602.15;109265;1251;58769;-62
2023/08/17 07:57:54;;;;;;;3.90;1.60;;;;;;;36.19;40.32;100600.57;109398;1250;58756;-62
2023/08/17 08:00:21;;;;;;;3.50;1.70;;;;;;;36.26;40.13;100602.61;109409;1250;65024;-61
2023/08/17 08:02:49;;;;;;;2.90;1.80;;;;;;;36.15;40.04;100600.91;109410;1251;58337;-62
2023/08/17 08:05:16;;;;;;;4.50;2.00;;;;;;;35.94;40.54;100598.86;109337;1254;63771;-61
2023/08/17 08:07:44;;;;;;;4.20;1.70;;;;;;;35.82;41.46;100597.92;109353;1253;58215;-62
2023/08/17 08:10:12;;;;;;;4.00;1.70;;;;;;;35.80;41.73;100599.42;109400;1251;58103;-61
2023/08/17 08:12:40;;;;;;;3.60;2.00;;;;;;;35.71;39.94;100598.94;109429;1250;63726;-61
2023/08/17 08:15:08;;;;;;;5.00;1.80;;;;;;;35.57;39.73;100600.95;109375;1251;58475;-64
2023/08/17 08:17:36;;;;;;;2.90;1.70;;;;;;;35.45;41.03;100595.16;109350;1250;62514;-62
2023/08/17 08:20:05;;;;;;;2.90;1.60;;;;;;;35.44;41.74;100591.46;109364;1251;58795;-62
2023/08/17 08:22:32;;;;;;;2.90;1.60;;;;;;;35.47;42.83;100586.51;109412;1251;58563;-62
2023/08/17 08:25:00;;;;;;;3.60;2.00;;;;;;;35.52;42.71;100588.16;109382;1250;63709;-65
2023/08/17 08:27:28;;;;;;;2.50;1.80;;;;;;;35.47;42.94;100583.34;109373;1251;58846;-63
2023/08/17 08:29:55;;;;;;;4.20;2.00;;;;;;;35.49;44.34;100587.13;109429;1250;63712;-62
2023/08/17 08:32:23;;;;;;;3.30;1.90;;;;;;;35.65;44.67;100584.66;109390;1251;58166;-61
2023/08/17 08:34:50;;;;;;;4.60;1.90;;;;;;;35.79;41.97;100588.08;109385;1251;58454;-61
2023/08/17 08:37:18;;;;;;;3.20;2.00;;;;;;;35.80;42.00;100587.02;109344;1251;63724;-64
2023/08/17 08:39:53;;;;;;;3.50;1.80;;;;;;;35.96;41.58;100580.86;109392;1251;58652;-62
2023/08/17 08:42:21;;;;;;;2.60;1.70;;;;;;;36.18;38.71;100579.45;109433;1251;63825;-62
2023/08/17 08:44:49;;;;;;;3.80;1.70;;;;;;;36.17;39.70;100580.83;109421;1251;58635;-61
2023/08/17 08:47:17;;;;;;;2.60;1.80;;;;;;;36.20;39.12;100582.61;109340;1251;58154;-65
2023/08/17 08:50:05;;;;;;;3.90;1.60;;;;;;;36.12;39.43;100575.88;109467;1250;65408;-62
2023/08/17 08:52:33;;;;;;;4.10;1.50;;;;;;;36.11;37.91;100578.55;109378;1251;58200;-64
2023/08/17 08:55:11;;;;;;;5.20;1.90;;;;;;;36.16;38.98;100575.89;109364;1251;63832;-65
2023/08/17 08:57:39;;;;;;;5.20;2.00;;;;;;;36.14;38.71;100574.14;109388;1251;58287;-64
2023/08/17 09:00:07;;;;;;;5.10;1.80;;;;;;;36.00;38.79;100575.09;109377;1251;58630;-64
2023/08/17 09:02:35;;;;;;;2.70;1.70;;;;;;;35.83;38.91;100577.95;109450;1251;64873;-67
2023/08/17 09:05:04;;;;;;;7.80;1.80;;;;;;;35.60;39.79;100577.32;109374;1251;67895;-63
2023/08/17 09:07:32;;;;;;;3.60;2.00;;;;;;;35.47;40.66;100573.36;109406;1250;63843;-64
2023/08/17 09:09:59;;;;;;;3.70;2.00;;;;;;;35.45;41.81;100572.14;109414;1250;58202;-65
2023/08/17 09:12:27;;;;;;;2.50;2.00;;;;;;;35.47;41.29;100574.52;109406;1251;58383;-62
2023/08/17 09:15:08;;;;;;;5.10;1.80;;;;;;;35.38;41.55;100567.76;109423;1251;65023;-65
2023/08/17 09:17:35;;;;;;;7.20;1.80;;;;;;;35.41;40.96;100562.45;109380;1255;58745;-62
2023/08/17 09:20:04;;;;;;;4.60;1.70;;;;;;;35.32;41.31;100561.22;109366;1251;62506;-63
2023/08/17 09:22:38;;;;;;;2.80;1.70;;;;;;;35.25;43.14;100568.14;109316;1251;58720;-63
2023/08/17 09:25:06;;;;;;;2.70;1.80;;;;;;;35.24;43.36;100571.45;109401;1251;58131;-62
2023/08/17 09:27:38;;;;;;;4.60;1.80;;;;;;;35.26;41.38;100569.17;109415;1251;63683;-63
2023/08/17 09:30:09;;;;;;;3.90;1.90;;;;;;;35.26;41.11;100567.79;109414;1251;59279;-63
2023/08/17 09:32:37;;;;;;;2.70;1.60;;;;;;;35.40;39.87;100564.09;109369;1251;62526;-63
2023/08/17 09:35:05;;;;;;;3.90;1.90;;;;;;;35.49;39.64;100567.92;109414;1251;58251;-63
2023/08/17 09:37:33;;;;;;;4.00;1.90;;;;;;;35.51;39.69;100564.27;109419;1251;58646;-63
2023/08/17 09:40:01;;;;;;;3.50;2.10;;;;;;;35.67;40.09;100564.64;109417;1251;72966;-64
2023/08/17 09:42:29;;;;;;;3.50;1.90;;;;;;;35.83;40.85;100562.15;109335;1251;58669;-63
2023/08/17 09:44:57;;;;;;;4.50;1.60;;;;;;;35.95;39.81;100561.77;109445;1251;63825;-63
2023/08/17 09:47:27;;;;;;;3.40;1.90;;;;;;;35.85;38.17;100558.17;109325;1251;58848;-63
2023/08/17 09:49:55;;;;;;;8.30;2.30;;;;;;;35.54;39.71;100555.60;109396;1250;58280;-66
2023/08/17 09:52:25;;;;;;;2.60;2.00;;;;;;;35.44;41.35;100553.38;109332;1251;73893;-66
2023/08/17 09:54:56;;;;;;;4.50;2.60;;;;;;;35.53;40.72;100550.31;109320;1256;58180;-64
2023/08/17 09:57:24;;;;;;;4.70;2.00;;;;;;;35.72;40.38;100552.24;109389;1251;63748;-63
2023/08/17 09:59:53;;;;;;;5.60;2.00;;;;;;;35.87;38.60;100549.00;109406;1251;58273;-66
2023/08/17 10:02:23;;;;;;;6.30;1.90;;;;;;;35.90;38.14;100550.71;109351;1255;58298;-67
2023/08/17 10:04:53;;;;;;;4.80;2.00;;;;;;;36.06;37.58;100548.58;109362;1250;65017;-63
2023/08/17 10:07:21;;;;;;;4.70;1.90;;;;;;;36.30;37.80;100546.63;109360;1251;58166;-64
2023/08/17 10:09:58;;;;;;;3.40;1.80;;;;;;;36.40;37.59;100553.77;109401;1251;63743;-63
2023/08/17 10:12:27;;;;;;;6.70;2.90;;;;;;;36.30;36.16;100554.62;109280;1251;58173;-66
2023/08/17 10:14:59;;;;;;;4.30;2.30;;;;;;;35.93;35.72;100555.05;109308;1251;58461;-63
2023/08/17 10:17:27;;;;;;;3.30;1.90;;;;;;;35.55;36.86;100558.12;109252;1251;65089;-63
2023/08/17 10:19:58;;;;;;;3.40;1.80;;;;;;;35.31;38.79;100553.45;109357;1251;58161;-65
2023/08/17 10:22:29;;;;;;;3.10;2.00;;;;;;;35.26;39.89;100552.77;109378;1250;62521;-64
2023/08/17 10:25:00;;;;;;;6.00;2.00;;;;;;;35.26;41.67;100548.82;109369;1251;58273;-63
2023/08/17 10:27:28;;;;;;;3.60;2.00;;;;;;;35.53;43.21;100550.15;109394;1250;58271;-63
2023/08/17 10:29:55;;;;;;;3.80;2.30;;;;;;;35.86;42.88;100549.36;109298;1251;65051;-65
2023/08/17 10:32:23;;;;;;;3.20;2.20;;;;;;;36.14;41.61;100543.42;109264;1251;60419;-66
2023/08/17 10:34:52;;;;;;;4.60;2.10;;;;;;;36.25;39.58;100545.80;109381;1251;64369;-63
2023/08/17 10:37:19;;;;;;;4.90;2.00;;;;;;;36.04;40.05;100546.42;109395;1251;58718;-63
2023/08/17 10:39:48;;;;;;;4.50;2.10;;;;;;;35.89;39.95;100551.22;109328;1250;58038;-64
2023/08/17 10:42:16;;;;;;;5.00;1.90;;;;;;;35.83;39.63;100549.67;109372;1251;63783;-64
2023/08/17 10:44:47;;;;;;;5.90;2.30;;;;;;;35.98;39.91;100545.90;109215;1251;58345;-65
2023/08/17 10:47:20;;;;;;;3.80;2.00;;;;;;;36.28;40.63;100542.70;109368;1251;62544;-63
2023/08/17 10:49:58;;;;;;;3.20;1.60;;;;;;;36.64;39.50;100541.71;109324;1254;58540;-64
2023/08/17 10:52:30;;;;;;;3.20;1.80;;;;;;;36.78;38.44;100537.86;109360;1251;58052;-66
2023/08/17 10:55:02;;;;;;;3.10;1.90;;;;;;;36.77;38.06;100542.35;109423;1251;64004;-64
2023/08/17 10:57:34;;;;;;;6.10;2.90;;;;;;;36.83;37.81;100537.20;109323;1251;58976;-64
2023/08/17 11:00:17;;;;;;;3.30;2.20;;;;;;;36.92;36.86;100534.94;109368;1251;62497;-64
2023/08/17 11:03:01;;;;;;;3.20;1.80;;;;;;;36.87;35.40;100538.16;109363;1251;58375;-65
2023/08/17 11:05:56;;;;;;;4.60;2.00;;;;;;;36.59;35.82;100538.59;109418;1251;58208;-64
2023/08/17 11:08:38;;;;;;;4.90;1.70;;;;;;;36.26;36.78;100532.59;109330;1251;65104;-67
2023/08/17 11:11:13;;;;;;;4.50;2.10;;;;;;;36.02;37.82;100528.39;109406;1251;58627;-65
2023/08/17 11:13:42;;;;;;;3.40;1.70;;;;;;;35.73;38.85;100525.92;109399;1251;62518;-62
2023/08/17 11:16:11;;;;;;;3.00;2.10;;;;;;;35.64;41.40;100527.52;109363;1251;60654;-62
2023/08/17 11:18:44;;;;;;;6.50;1.80;;;;;;;35.64;38.49;100526.05;109437;1250;58704;-63
2023/08/17 11:21:12;;;;;;;3.60;2.20;;;;;;;35.36;38.34;100518.98;109363;1251;65155;-63
2023/08/17 11:23:46;;;;;;;2.70;2.00;;;;;;;35.05;40.18;100514.60;109382;1251;58198;-64
2023/08/17 11:26:18;;;;;;;2.60;2.00;;;;;;;35.01;41.55;100514.02;109416;1251;63757;-65
2023/08/17 11:28:45;;;;;;;3.60;1.90;;;;;;;35.17;41.88;100510.14;109377;1251;58607;-64
2023/08/17 11:31:15;;;;;;;2.90;1.90;;;;;;;35.32;40.76;100509.49;109382;1250;58226;-63